sensor_id;sensor_type;location;lat;lon;timestamp;P1;durP1;ratioP1;P2;durP2;ratioP2
4519;SDS011;2272;49.226;8.108;2024-01-10T00:02:00;15.37;;;7.30;;
4519;SDS011;2272;49.226;8.108;2024-01-10T00:04:28;12.73;;;6.90;;
4519;SDS011;2272;49.226;8.108;2024-01-10T00:06:54;16.60;;;7.30;;
4519;SDS011;2272;49.226;8.108;2024-01-10T00:09:21;10.33;;;7.33;;
4519;SDS011;2272;49.226;8.108;2024-01-10T00:11:49;15.50;;;7.70;;
4519;SDS011;2272;49.226;8.108;2024-01-10T00:14:16;15.40;;;7.90;;
4519;SDS011;2272;49.226;8.108;2024-01-10T00:16:43;14.37;;;7.37;;
4519;SDS011;2272;49.226;8.108;2024-01-10T00:19:09;21.13;;;7.60;;
4519;SDS011;2272;49.226;8.108;2024-01-10T00:21:36;10.57;;;7.03;;
4519;SDS011;2272;49.226;8.108;2024-01-10T00:24:03;19.33;;;7.33;;
4519;SDS011;2272;49.226;8.108;2024-01-10T00:26:30;12.67;;;6.60;;
4519;SDS011;2272;49.226;8.108;2024-01-10T00:28:58;10.90;;;6.50;;
4519;SDS011;2272;49.226;8.108;2024-01-10T00:31:24;20.40;;;7.90;;
4519;SDS011;2272;49.226;8.108;2024-01-10T00:33:51;13.47;;;7.77;;
4519;SDS011;2272;49.226;8.108;2024-01-10T00:36:18;13.30;;;7.20;;
4519;SDS011;2272;49.226;8.108;2024-01-10T00:38:45;15.00;;;7.90;;
4519;SDS011;2272;49.226;8.108;2024-01-10T00:41:11;15.50;;;7.37;;
4519;SDS011;2272;49.226;8.108;2024-01-10T00:43:38;7.57;;;6.57;;
4519;SDS011;2272;49.226;8.108;2024-01-10T00:46:06;11.57;;;6.70;;
4519;SDS011;2272;49.226;8.108;2024-01-10T00:48:33;13.90;;;7.13;;
4519;SDS011;2272;49.226;8.108;2024-01-10T00:50:59;15.60;;;8.60;;
4519;SDS011;2272;49.226;8.108;2024-01-10T00:53:26;15.10;;;7.43;;
4519;SDS011;2272;49.226;8.108;2024-01-10T00:55:53;14.10;;;8.03;;
4519;SDS011;2272;49.226;8.108;2024-01-10T00:58:19;16.50;;;7.10;;
4519;SDS011;2272;49.226;8.108;2024-01-10T01:00:46;14.67;;;8.07;;
4519;SDS011;2272;49.226;8.108;2024-01-10T01:03:14;17.30;;;7.73;;
4519;SDS011;2272;49.226;8.108;2024-01-10T01:05:41;16.50;;;7.43;;
4519;SDS011;2272;49.226;8.108;2024-01-10T01:08:08;12.23;;;7.03;;
4519;SDS011;2272;49.226;8.108;2024-01-10T01:10:34;17.57;;;7.40;;
4519;SDS011;2272;49.226;8.108;2024-01-10T01:13:01;14.03;;;7.63;;
4519;SDS011;2272;49.226;8.108;2024-01-10T01:15:28;13.63;;;7.33;;
4519;SDS011;2272;49.226;8.108;2024-01-10T01:17:54;14.10;;;7.83;;
4519;SDS011;2272;49.226;8.108;2024-01-10T01:20:23;13.27;;;8.10;;
4519;SDS011;2272;49.226;8.108;2024-01-10T01:22:49;15.90;;;7.57;;
4519;SDS011;2272;49.226;8.108;2024-01-10T01:25:16;14.07;;;7.83;;
4519;SDS011;2272;49.226;8.108;2024-01-10T01:27:43;13.10;;;7.70;;
4519;SDS011;2272;49.226;8.108;2024-01-10T01:30:10;13.60;;;8.50;;
4519;SDS011;2272;49.226;8.108;2024-01-10T01:32:38;15.73;;;8.03;;
4519;SDS011;2272;49.226;8.108;2024-01-10T01:35:05;13.50;;;8.27;;
4519;SDS011;2272;49.226;8.108;2024-01-10T01:37:33;15.20;;;7.37;;
4519;SDS011;2272;49.226;8.108;2024-01-10T01:39:59;18.10;;;8.80;;
4519;SDS011;2272;49.226;8.108;2024-01-10T01:42:26;11.63;;;7.20;;
4519;SDS011;2272;49.226;8.108;2024-01-10T01:44:53;16.40;;;9.00;;
4519;SDS011;2272;49.226;8.108;2024-01-10T01:47:19;25.93;;;8.00;;
4519;SDS011;2272;49.226;8.108;2024-01-10T01:49:46;18.60;;;8.60;;
4519;SDS011;2272;49.226;8.108;2024-01-10T01:52:13;13.80;;;7.90;;
4519;SDS011;2272;49.226;8.108;2024-01-10T01:54:41;17.03;;;9.03;;
4519;SDS011;2272;49.226;8.108;2024-01-10T01:57:08;15.40;;;8.70;;
4519;SDS011;2272;49.226;8.108;2024-01-10T01:59:35;14.10;;;8.20;;
4519;SDS011;2272;49.226;8.108;2024-01-10T02:02:02;15.43;;;7.50;;
4519;SDS011;2272;49.226;8.108;2024-01-10T02:04:30;17.07;;;8.63;;
4519;SDS011;2272;49.226;8.108;2024-01-10T02:06:57;18.30;;;8.70;;
4519;SDS011;2272;49.226;8.108;2024-01-10T02:09:24;13.77;;;7.57;;
4519;SDS011;2272;49.226;8.108;2024-01-10T02:11:53;13.97;;;7.90;;
4519;SDS011;2272;49.226;8.108;2024-01-10T02:14:20;14.97;;;7.93;;
4519;SDS011;2272;49.226;8.108;2024-01-10T02:16:47;23.43;;;7.27;;
4519;SDS011;2272;49.226;8.108;2024-01-10T02:19:17;20.60;;;9.33;;
4519;SDS011;2272;49.226;8.108;2024-01-10T02:21:45;11.73;;;7.63;;
4519;SDS011;2272;49.226;8.108;2024-01-10T02:24:12;17.67;;;8.93;;
4519;SDS011;2272;49.226;8.108;2024-01-10T02:26:40;26.30;;;9.33;;
4519;SDS011;2272;49.226;8.108;2024-01-10T02:29:06;11.73;;;7.63;;
4519;SDS011;2272;49.226;8.108;2024-01-10T02:31:33;16.80;;;9.40;;
4519;SDS011;2272;49.226;8.108;2024-01-10T02:34:00;13.57;;;7.33;;
4519;SDS011;2272;49.226;8.108;2024-01-10T02:36:27;14.70;;;7.57;;
4519;SDS011;2272;49.226;8.108;2024-01-10T02:38:53;15.90;;;8.10;;
4519;SDS011;2272;49.226;8.108;2024-01-10T02:41:20;12.80;;;8.10;;
4519;SDS011;2272;49.226;8.108;2024-01-10T02:43:48;16.80;;;8.40;;
4519;SDS011;2272;49.226;8.108;2024-01-10T02:46:15;14.00;;;7.87;;
4519;SDS011;2272;49.226;8.108;2024-01-10T02:48:41;21.30;;;8.33;;
4519;SDS011;2272;49.226;8.108;2024-01-10T02:51:08;15.67;;;8.50;;
4519;SDS011;2272;49.226;8.108;2024-01-10T02:53:35;15.57;;;8.40;;
4519;SDS011;2272;49.226;8.108;2024-01-10T02:56:01;15.53;;;7.70;;
4519;SDS011;2272;49.226;8.108;2024-01-10T02:58:28;14.90;;;7.93;;
4519;SDS011;2272;49.226;8.108;2024-01-10T03:00:56;17.63;;;9.27;;
4519;SDS011;2272;49.226;8.108;2024-01-10T03:03:23;18.20;;;8.37;;
4519;SDS011;2272;49.226;8.108;2024-01-10T03:05:50;12.30;;;7.90;;
4519;SDS011;2272;49.226;8.108;2024-01-10T03:08:17;17.23;;;8.63;;
4519;SDS011;2272;49.226;8.108;2024-01-10T03:10:44;17.60;;;8.63;;
4519;SDS011;2272;49.226;8.108;2024-01-10T03:13:10;15.10;;;8.37;;
4519;SDS011;2272;49.226;8.108;2024-01-10T03:15:37;16.17;;;8.90;;
4519;SDS011;2272;49.226;8.108;2024-01-10T03:18:06;13.80;;;8.90;;
4519;SDS011;2272;49.226;8.108;2024-01-10T03:20:32;17.10;;;8.40;;
4519;SDS011;2272;49.226;8.108;2024-01-10T03:22:59;18.53;;;8.20;;
4519;SDS011;2272;49.226;8.108;2024-01-10T03:25:26;16.93;;;7.67;;
4519;SDS011;2272;49.226;8.108;2024-01-10T03:27:52;17.93;;;8.40;;
4519;SDS011;2272;49.226;8.108;2024-01-10T03:30:19;17.10;;;8.87;;
4519;SDS011;2272;49.226;8.108;2024-01-10T03:32:49;16.73;;;8.60;;
4519;SDS011;2272;49.226;8.108;2024-01-10T03:35:17;24.53;;;10.50;;
4519;SDS011;2272;49.226;8.108;2024-01-10T03:37:44;21.80;;;9.73;;
4519;SDS011;2272;49.226;8.108;2024-01-10T03:40:11;14.03;;;8.80;;
4519;SDS011;2272;49.226;8.108;2024-01-10T03:42:37;18.70;;;8.83;;
4519;SDS011;2272;49.226;8.108;2024-01-10T03:45:04;16.93;;;8.53;;
4519;SDS011;2272;49.226;8.108;2024-01-10T03:47:31;17.20;;;9.53;;
4519;SDS011;2272;49.226;8.108;2024-01-10T03:49:58;16.73;;;8.87;;
4519;SDS011;2272;49.226;8.108;2024-01-10T03:52:26;19.30;;;8.73;;
4519;SDS011;2272;49.226;8.108;2024-01-10T03:54:53;17.30;;;8.47;;
4519;SDS011;2272;49.226;8.108;2024-01-10T03:57:20;18.00;;;9.03;;
4519;SDS011;2272;49.226;8.108;2024-01-10T03:59:46;19.97;;;8.63;;
4519;SDS011;2272;49.226;8.108;2024-01-10T04:02:13;17.50;;;9.30;;
4519;SDS011;2272;49.226;8.108;2024-01-10T04:04:40;22.03;;;10.23;;
4519;SDS011;2272;49.226;8.108;2024-01-10T04:07:07;20.37;;;8.80;;
4519;SDS011;2272;49.226;8.108;2024-01-10T04:09:35;16.97;;;9.30;;
4519;SDS011;2272;49.226;8.108;2024-01-10T04:12:02;17.97;;;8.43;;
4519;SDS011;2272;49.226;8.108;2024-01-10T04:14:29;17.70;;;9.63;;
4519;SDS011;2272;49.226;8.108;2024-01-10T04:16:55;25.30;;;10.80;;
4519;SDS011;2272;49.226;8.108;2024-01-10T04:19:22;18.97;;;9.53;;
4519;SDS011;2272;49.226;8.108;2024-01-10T04:21:49;21.50;;;9.60;;
4519;SDS011;2272;49.226;8.108;2024-01-10T04:24:15;21.40;;;9.23;;
4519;SDS011;2272;49.226;8.108;2024-01-10T04:26:43;15.03;;;8.30;;
4519;SDS011;2272;49.226;8.108;2024-01-10T04:29:10;17.50;;;8.80;;
4519;SDS011;2272;49.226;8.108;2024-01-10T04:31:37;18.10;;;9.57;;
4519;SDS011;2272;49.226;8.108;2024-01-10T04:34:04;21.17;;;10.27;;
4519;SDS011;2272;49.226;8.108;2024-01-10T04:36:30;19.83;;;9.00;;
4519;SDS011;2272;49.226;8.108;2024-01-10T04:38:57;20.37;;;9.30;;
4519;SDS011;2272;49.226;8.108;2024-01-10T04:41:24;18.53;;;9.27;;
4519;SDS011;2272;49.226;8.108;2024-01-10T04:43:52;12.40;;;7.70;;
4519;SDS011;2272;49.226;8.108;2024-01-10T04:46:19;19.37;;;9.77;;
4519;SDS011;2272;49.226;8.108;2024-01-10T04:48:46;17.57;;;9.77;;
4519;SDS011;2272;49.226;8.108;2024-01-10T04:51:12;16.33;;;8.50;;
4519;SDS011;2272;49.226;8.108;2024-01-10T04:53:40;16.80;;;9.07;;
4519;SDS011;2272;49.226;8.108;2024-01-10T04:56:06;19.33;;;7.73;;
4519;SDS011;2272;49.226;8.108;2024-01-10T04:58:33;16.30;;;9.60;;
4519;SDS011;2272;49.226;8.108;2024-01-10T05:01:03;19.53;;;10.20;;
4519;SDS011;2272;49.226;8.108;2024-01-10T05:03:31;19.77;;;9.70;;
4519;SDS011;2272;49.226;8.108;2024-01-10T05:05:57;24.30;;;10.53;;
4519;SDS011;2272;49.226;8.108;2024-01-10T05:08:24;19.33;;;9.90;;
4519;SDS011;2272;49.226;8.108;2024-01-10T05:10:51;24.80;;;9.80;;
4519;SDS011;2272;49.226;8.108;2024-01-10T05:13:17;20.00;;;8.97;;
4519;SDS011;2272;49.226;8.108;2024-01-10T05:15:44;23.07;;;10.03;;
4519;SDS011;2272;49.226;8.108;2024-01-10T05:18:12;20.40;;;8.77;;
4519;SDS011;2272;49.226;8.108;2024-01-10T05:20:39;23.90;;;9.60;;
4519;SDS011;2272;49.226;8.108;2024-01-10T05:23:06;19.60;;;9.27;;
4519;SDS011;2272;49.226;8.108;2024-01-10T05:25:33;21.17;;;9.80;;
4519;SDS011;2272;49.226;8.108;2024-01-10T05:28:00;20.70;;;10.93;;
4519;SDS011;2272;49.226;8.108;2024-01-10T05:30:27;21.40;;;9.47;;
4519;SDS011;2272;49.226;8.108;2024-01-10T05:32:54;24.17;;;11.10;;
4519;SDS011;2272;49.226;8.108;2024-01-10T05:35:22;22.30;;;12.00;;
4519;SDS011;2272;49.226;8.108;2024-01-10T05:37:48;23.93;;;11.40;;
4519;SDS011;2272;49.226;8.108;2024-01-10T05:40:15;25.13;;;10.43;;
4519;SDS011;2272;49.226;8.108;2024-01-10T05:42:42;21.20;;;11.37;;
4519;SDS011;2272;49.226;8.108;2024-01-10T05:45:09;22.93;;;9.63;;
4519;SDS011;2272;49.226;8.108;2024-01-10T05:47:35;21.77;;;10.90;;
4519;SDS011;2272;49.226;8.108;2024-01-10T05:50:02;18.37;;;9.60;;
4519;SDS011;2272;49.226;8.108;2024-01-10T05:52:32;21.73;;;11.20;;
4519;SDS011;2272;49.226;8.108;2024-01-10T05:54:59;29.77;;;13.50;;
4519;SDS011;2272;49.226;8.108;2024-01-10T05:57:26;20.87;;;11.40;;
4519;SDS011;2272;49.226;8.108;2024-01-10T05:59:53;25.77;;;10.70;;
4519;SDS011;2272;49.226;8.108;2024-01-10T06:02:21;22.30;;;9.90;;
4519;SDS011;2272;49.226;8.108;2024-01-10T06:04:51;21.87;;;10.90;;
4519;SDS011;2272;49.226;8.108;2024-01-10T06:07:18;26.97;;;10.50;;
4519;SDS011;2272;49.226;8.108;2024-01-10T06:09:47;24.40;;;10.67;;
4519;SDS011;2272;49.226;8.108;2024-01-10T06:12:14;25.47;;;10.70;;
4519;SDS011;2272;49.226;8.108;2024-01-10T06:14:40;18.37;;;10.40;;
4519;SDS011;2272;49.226;8.108;2024-01-10T06:17:07;19.57;;;10.27;;
4519;SDS011;2272;49.226;8.108;2024-01-10T06:19:34;24.43;;;12.33;;
4519;SDS011;2272;49.226;8.108;2024-01-10T06:22:00;20.47;;;10.93;;
4519;SDS011;2272;49.226;8.108;2024-01-10T06:24:27;26.20;;;14.20;;
4519;SDS011;2272;49.226;8.108;2024-01-10T06:26:55;30.27;;;13.10;;
4519;SDS011;2272;49.226;8.108;2024-01-10T06:29:22;29.67;;;16.10;;
4519;SDS011;2272;49.226;8.108;2024-01-10T06:31:48;23.73;;;10.83;;
4519;SDS011;2272;49.226;8.108;2024-01-10T06:34:15;28.40;;;13.00;;
4519;SDS011;2272;49.226;8.108;2024-01-10T06:36:42;21.17;;;11.77;;
4519;SDS011;2272;49.226;8.108;2024-01-10T06:39:09;24.63;;;11.03;;
4519;SDS011;2272;49.226;8.108;2024-01-10T06:41:38;23.37;;;11.63;;
4519;SDS011;2272;49.226;8.108;2024-01-10T06:44:06;20.50;;;10.40;;
4519;SDS011;2272;49.226;8.108;2024-01-10T06:46:33;29.60;;;12.00;;
4519;SDS011;2272;49.226;8.108;2024-01-10T06:48:59;23.60;;;11.27;;
4519;SDS011;2272;49.226;8.108;2024-01-10T06:51:26;28.60;;;12.07;;
4519;SDS011;2272;49.226;8.108;2024-01-10T06:53:53;27.83;;;13.23;;
4519;SDS011;2272;49.226;8.108;2024-01-10T06:56:25;25.60;;;11.53;;
4519;SDS011;2272;49.226;8.108;2024-01-10T06:58:52;23.50;;;10.80;;
4519;SDS011;2272;49.226;8.108;2024-01-10T07:01:20;25.03;;;11.77;;
4519;SDS011;2272;49.226;8.108;2024-01-10T07:03:48;20.30;;;11.20;;
4519;SDS011;2272;49.226;8.108;2024-01-10T07:06:14;28.07;;;13.87;;
4519;SDS011;2272;49.226;8.108;2024-01-10T07:08:41;20.80;;;11.30;;
4519;SDS011;2272;49.226;8.108;2024-01-10T07:11:09;29.43;;;12.77;;
4519;SDS011;2272;49.226;8.108;2024-01-10T07:13:37;27.10;;;11.90;;
4519;SDS011;2272;49.226;8.108;2024-01-10T07:16:04;28.13;;;14.37;;
4519;SDS011;2272;49.226;8.108;2024-01-10T07:18:32;24.40;;;12.13;;
4519;SDS011;2272;49.226;8.108;2024-01-10T07:20:59;21.77;;;11.83;;
4519;SDS011;2272;49.226;8.108;2024-01-10T07:23:26;31.10;;;12.10;;
4519;SDS011;2272;49.226;8.108;2024-01-10T07:25:52;24.47;;;12.40;;
4519;SDS011;2272;49.226;8.108;2024-01-10T07:28:19;28.10;;;12.57;;
4519;SDS011;2272;49.226;8.108;2024-01-10T07:30:47;25.20;;;13.23;;
4519;SDS011;2272;49.226;8.108;2024-01-10T07:33:14;28.30;;;12.43;;
4519;SDS011;2272;49.226;8.108;2024-01-10T07:35:42;38.13;;;12.37;;
4519;SDS011;2272;49.226;8.108;2024-01-10T07:38:09;30.30;;;13.00;;
4519;SDS011;2272;49.226;8.108;2024-01-10T07:40:36;45.60;;;13.47;;
4519;SDS011;2272;49.226;8.108;2024-01-10T07:43:03;23.67;;;12.53;;
4519;SDS011;2272;49.226;8.108;2024-01-10T07:45:30;28.07;;;12.90;;
4519;SDS011;2272;49.226;8.108;2024-01-10T07:47:58;25.70;;;12.90;;
4519;SDS011;2272;49.226;8.108;2024-01-10T07:50:25;23.50;;;11.73;;
4519;SDS011;2272;49.226;8.108;2024-01-10T07:52:54;25.40;;;12.33;;
4519;SDS011;2272;49.226;8.108;2024-01-10T07:55:21;21.67;;;11.27;;
4519;SDS011;2272;49.226;8.108;2024-01-10T07:57:48;24.40;;;9.83;;
4519;SDS011;2272;49.226;8.108;2024-01-10T08:00:15;26.37;;;12.03;;
4519;SDS011;2272;49.226;8.108;2024-01-10T08:02:45;27.37;;;12.20;;
4519;SDS011;2272;49.226;8.108;2024-01-10T08:05:12;22.60;;;12.60;;
4519;SDS011;2272;49.226;8.108;2024-01-10T08:07:39;20.10;;;12.73;;
4519;SDS011;2272;49.226;8.108;2024-01-10T08:10:08;27.23;;;12.33;;
4519;SDS011;2272;49.226;8.108;2024-01-10T08:12:35;29.10;;;10.97;;
4519;SDS011;2272;49.226;8.108;2024-01-10T08:15:03;31.57;;;11.60;;
4519;SDS011;2272;49.226;8.108;2024-01-10T08:17:31;25.70;;;11.70;;
4519;SDS011;2272;49.226;8.108;2024-01-10T08:19:59;22.80;;;10.40;;
4519;SDS011;2272;49.226;8.108;2024-01-10T08:22:29;29.27;;;13.20;;
4519;SDS011;2272;49.226;8.108;2024-01-10T08:24:55;29.30;;;13.03;;
4519;SDS011;2272;49.226;8.108;2024-01-10T08:27:23;23.10;;;12.40;;
4519;SDS011;2272;49.226;8.108;2024-01-10T08:29:50;25.50;;;12.60;;
4519;SDS011;2272;49.226;8.108;2024-01-10T08:32:17;22.17;;;12.20;;
4519;SDS011;2272;49.226;8.108;2024-01-10T08:34:46;20.60;;;10.83;;
4519;SDS011;2272;49.226;8.108;2024-01-10T08:37:16;37.40;;;15.40;;
4519;SDS011;2272;49.226;8.108;2024-01-10T08:39:43;28.53;;;13.23;;
4519;SDS011;2272;49.226;8.108;2024-01-10T08:42:10;34.47;;;15.67;;
4519;SDS011;2272;49.226;8.108;2024-01-10T08:44:38;26.27;;;12.67;;
4519;SDS011;2272;49.226;8.108;2024-01-10T08:47:05;23.10;;;10.53;;
4519;SDS011;2272;49.226;8.108;2024-01-10T08:49:31;23.93;;;13.93;;
4519;SDS011;2272;49.226;8.108;2024-01-10T08:51:58;22.00;;;11.70;;
4519;SDS011;2272;49.226;8.108;2024-01-10T08:54:25;28.67;;;13.03;;
4519;SDS011;2272;49.226;8.108;2024-01-10T08:56:52;21.90;;;12.03;;
4519;SDS011;2272;49.226;8.108;2024-01-10T08:59:19;19.57;;;11.83;;
4519;SDS011;2272;49.226;8.108;2024-01-10T09:01:47;25.57;;;11.70;;
4519;SDS011;2272;49.226;8.108;2024-01-10T09:04:13;28.50;;;12.50;;
4519;SDS011;2272;49.226;8.108;2024-01-10T09:06:40;28.23;;;12.90;;
4519;SDS011;2272;49.226;8.108;2024-01-10T09:09:06;30.03;;;12.37;;
4519;SDS011;2272;49.226;8.108;2024-01-10T09:11:32;22.47;;;12.00;;
4519;SDS011;2272;49.226;8.108;2024-01-10T09:13:59;26.00;;;11.80;;
4519;SDS011;2272;49.226;8.108;2024-01-10T09:16:26;33.00;;;12.20;;
4519;SDS011;2272;49.226;8.108;2024-01-10T09:18:54;24.00;;;10.80;;
4519;SDS011;2272;49.226;8.108;2024-01-10T09:21:22;30.37;;;12.77;;
4519;SDS011;2272;49.226;8.108;2024-01-10T09:23:49;26.47;;;13.20;;
4519;SDS011;2272;49.226;8.108;2024-01-10T09:26:16;20.50;;;11.60;;
4519;SDS011;2272;49.226;8.108;2024-01-10T09:28:43;32.23;;;13.20;;
4519;SDS011;2272;49.226;8.108;2024-01-10T09:31:09;24.23;;;12.17;;
4519;SDS011;2272;49.226;8.108;2024-01-10T09:33:36;30.43;;;11.33;;
4519;SDS011;2272;49.226;8.108;2024-01-10T09:36:04;20.60;;;11.23;;
4519;SDS011;2272;49.226;8.108;2024-01-10T09:38:34;29.30;;;14.43;;
4519;SDS011;2272;49.226;8.108;2024-01-10T09:41:01;24.73;;;11.47;;
4519;SDS011;2272;49.226;8.108;2024-01-10T09:43:30;23.57;;;11.13;;
4519;SDS011;2272;49.226;8.108;2024-01-10T09:45:57;22.47;;;12.23;;
4519;SDS011;2272;49.226;8.108;2024-01-10T09:48:24;31.93;;;12.23;;
4519;SDS011;2272;49.226;8.108;2024-01-10T09:50:51;28.80;;;11.13;;
4519;SDS011;2272;49.226;8.108;2024-01-10T09:53:21;26.07;;;13.10;;
4519;SDS011;2272;49.226;8.108;2024-01-10T09:55:49;36.00;;;12.70;;
4519;SDS011;2272;49.226;8.108;2024-01-10T09:58:16;26.83;;;12.63;;
4519;SDS011;2272;49.226;8.108;2024-01-10T10:00:43;21.60;;;10.80;;
4519;SDS011;2272;49.226;8.108;2024-01-10T10:03:10;20.97;;;11.10;;
4519;SDS011;2272;49.226;8.108;2024-01-10T10:05:37;25.90;;;11.77;;
4519;SDS011;2272;49.226;8.108;2024-01-10T10:08:07;29.00;;;13.67;;
4519;SDS011;2272;49.226;8.108;2024-01-10T10:10:36;31.03;;;11.97;;
4519;SDS011;2272;49.226;8.108;2024-01-10T10:13:07;22.00;;;11.23;;
4519;SDS011;2272;49.226;8.108;2024-01-10T10:15:36;26.73;;;11.37;;
4519;SDS011;2272;49.226;8.108;2024-01-10T10:18:03;25.37;;;12.73;;
4519;SDS011;2272;49.226;8.108;2024-01-10T10:20:30;25.67;;;12.57;;
4519;SDS011;2272;49.226;8.108;2024-01-10T10:23:00;23.50;;;12.03;;
4519;SDS011;2272;49.226;8.108;2024-01-10T10:25:29;29.23;;;12.73;;
4519;SDS011;2272;49.226;8.108;2024-01-10T10:27:59;23.13;;;12.63;;
4519;SDS011;2272;49.226;8.108;2024-01-10T10:30:26;25.57;;;12.77;;
4519;SDS011;2272;49.226;8.108;2024-01-10T10:32:53;25.80;;;13.30;;
4519;SDS011;2272;49.226;8.108;2024-01-10T10:35:21;29.47;;;13.10;;
4519;SDS011;2272;49.226;8.108;2024-01-10T10:37:48;25.03;;;13.27;;
4519;SDS011;2272;49.226;8.108;2024-01-10T10:40:15;26.70;;;12.80;;
4519;SDS011;2272;49.226;8.108;2024-01-10T10:42:43;30.63;;;12.87;;
4519;SDS011;2272;49.226;8.108;2024-01-10T10:45:14;31.93;;;12.43;;
4519;SDS011;2272;49.226;8.108;2024-01-10T10:47:42;23.00;;;13.00;;
4519;SDS011;2272;49.226;8.108;2024-01-10T10:50:12;56.57;;;13.27;;
4519;SDS011;2272;49.226;8.108;2024-01-10T10:52:40;31.00;;;13.03;;
4519;SDS011;2272;49.226;8.108;2024-01-10T10:55:12;25.80;;;13.80;;
4519;SDS011;2272;49.226;8.108;2024-01-10T10:57:41;27.20;;;12.83;;
4519;SDS011;2272;49.226;8.108;2024-01-10T11:00:09;24.27;;;13.00;;
4519;SDS011;2272;49.226;8.108;2024-01-10T11:02:41;29.90;;;13.30;;
4519;SDS011;2272;49.226;8.108;2024-01-10T11:05:09;27.13;;;14.17;;
4519;SDS011;2272;49.226;8.108;2024-01-10T11:07:36;21.70;;;12.30;;
4519;SDS011;2272;49.226;8.108;2024-01-10T11:10:04;25.93;;;13.50;;
4519;SDS011;2272;49.226;8.108;2024-01-10T11:12:38;27.73;;;13.50;;
4519;SDS011;2272;49.226;8.108;2024-01-10T11:15:20;32.77;;;15.33;;
4519;SDS011;2272;49.226;8.108;2024-01-10T11:18:11;37.73;;;13.80;;
4519;SDS011;2272;49.226;8.108;2024-01-10T11:20:54;19.80;;;12.07;;
4519;SDS011;2272;49.226;8.108;2024-01-10T11:23:37;25.53;;;14.33;;
4519;SDS011;2272;49.226;8.108;2024-01-10T11:26:06;28.13;;;14.47;;
4519;SDS011;2272;49.226;8.108;2024-01-10T11:28:33;31.77;;;13.73;;
4519;SDS011;2272;49.226;8.108;2024-01-10T11:31:02;22.23;;;12.63;;
4519;SDS011;2272;49.226;8.108;2024-01-10T11:33:31;26.23;;;12.97;;
4519;SDS011;2272;49.226;8.108;2024-01-10T11:36:05;31.20;;;15.70;;
4519;SDS011;2272;49.226;8.108;2024-01-10T11:38:39;34.73;;;14.70;;
4519;SDS011;2272;49.226;8.108;2024-01-10T11:41:12;30.80;;;13.23;;
4519;SDS011;2272;49.226;8.108;2024-01-10T11:43:46;28.90;;;15.83;;
4519;SDS011;2272;49.226;8.108;2024-01-10T11:46:32;28.97;;;16.60;;
4519;SDS011;2272;49.226;8.108;2024-01-10T11:49:01;33.37;;;17.17;;
4519;SDS011;2272;49.226;8.108;2024-01-10T11:51:28;31.00;;;14.10;;
4519;SDS011;2272;49.226;8.108;2024-01-10T11:53:55;38.33;;;15.87;;
4519;SDS011;2272;49.226;8.108;2024-01-10T11:56:22;27.73;;;15.63;;
4519;SDS011;2272;49.226;8.108;2024-01-10T11:58:52;30.17;;;13.70;;
4519;SDS011;2272;49.226;8.108;2024-01-10T12:01:20;24.20;;;12.50;;
4519;SDS011;2272;49.226;8.108;2024-01-10T12:03:47;22.50;;;12.57;;
4519;SDS011;2272;49.226;8.108;2024-01-10T12:06:17;24.33;;;13.50;;
4519;SDS011;2272;49.226;8.108;2024-01-10T12:08:46;33.20;;;14.20;;
4519;SDS011;2272;49.226;8.108;2024-01-10T12:11:12;26.50;;;14.57;;
4519;SDS011;2272;49.226;8.108;2024-01-10T12:13:40;31.73;;;16.87;;
4519;SDS011;2272;49.226;8.108;2024-01-10T12:16:07;34.70;;;15.50;;
4519;SDS011;2272;49.226;8.108;2024-01-10T12:18:34;30.03;;;14.10;;
4519;SDS011;2272;49.226;8.108;2024-01-10T12:21:01;32.03;;;16.37;;
4519;SDS011;2272;49.226;8.108;2024-01-10T12:23:29;34.53;;;15.60;;
4519;SDS011;2272;49.226;8.108;2024-01-10T12:25:56;35.47;;;15.53;;
4519;SDS011;2272;49.226;8.108;2024-01-10T12:28:23;27.80;;;14.10;;
4519;SDS011;2272;49.226;8.108;2024-01-10T12:30:50;31.70;;;16.87;;
4519;SDS011;2272;49.226;8.108;2024-01-10T12:33:21;30.53;;;14.27;;
4519;SDS011;2272;49.226;8.108;2024-01-10T12:36:01;26.73;;;13.10;;
4519;SDS011;2272;49.226;8.108;2024-01-10T12:38:31;33.83;;;15.60;;
4519;SDS011;2272;49.226;8.108;2024-01-10T12:40:59;29.73;;;15.17;;
4519;SDS011;2272;49.226;8.108;2024-01-10T12:43:26;34.87;;;16.17;;
4519;SDS011;2272;49.226;8.108;2024-01-10T12:46:02;28.27;;;14.13;;
4519;SDS011;2272;49.226;8.108;2024-01-10T12:48:30;24.77;;;12.87;;
4519;SDS011;2272;49.226;8.108;2024-01-10T12:50:58;26.30;;;14.20;;
4519;SDS011;2272;49.226;8.108;2024-01-10T12:53:26;26.80;;;12.83;;
4519;SDS011;2272;49.226;8.108;2024-01-10T12:55:54;33.20;;;15.63;;
4519;SDS011;2272;49.226;8.108;2024-01-10T12:58:21;30.03;;;16.57;;
4519;SDS011;2272;49.226;8.108;2024-01-10T13:00:48;34.50;;;15.10;;
4519;SDS011;2272;49.226;8.108;2024-01-10T13:03:15;28.37;;;15.47;;
4519;SDS011;2272;49.226;8.108;2024-01-10T13:05:42;24.37;;;14.23;;
4519;SDS011;2272;49.226;8.108;2024-01-10T13:08:10;30.57;;;15.70;;
4519;SDS011;2272;49.226;8.108;2024-01-10T13:10:37;27.33;;;14.73;;
4519;SDS011;2272;49.226;8.108;2024-01-10T13:13:05;34.53;;;17.63;;
4519;SDS011;2272;49.226;8.108;2024-01-10T13:15:32;27.70;;;14.70;;
4519;SDS011;2272;49.226;8.108;2024-01-10T13:17:58;30.10;;;16.33;;
4519;SDS011;2272;49.226;8.108;2024-01-10T13:20:25;21.17;;;13.63;;
4519;SDS011;2272;49.226;8.108;2024-01-10T13:22:52;36.20;;;15.50;;
4519;SDS011;2272;49.226;8.108;2024-01-10T13:25:19;20.90;;;11.47;;
4519;SDS011;2272;49.226;8.108;2024-01-10T13:27:48;40.00;;;15.30;;
4519;SDS011;2272;49.226;8.108;2024-01-10T13:30:17;59.33;;;16.20;;
4519;SDS011;2272;49.226;8.108;2024-01-10T13:32:43;27.20;;;14.93;;
4519;SDS011;2272;49.226;8.108;2024-01-10T13:35:11;36.70;;;14.30;;
4519;SDS011;2272;49.226;8.108;2024-01-10T13:37:39;27.50;;;16.17;;
4519;SDS011;2272;49.226;8.108;2024-01-10T13:40:06;30.03;;;14.17;;
4519;SDS011;2272;49.226;8.108;2024-01-10T13:42:34;23.93;;;14.27;;
4519;SDS011;2272;49.226;8.108;2024-01-10T13:45:02;38.73;;;16.40;;
4519;SDS011;2272;49.226;8.108;2024-01-10T13:47:31;33.23;;;15.30;;
4519;SDS011;2272;49.226;8.108;2024-01-10T13:49:59;24.77;;;14.33;;
4519;SDS011;2272;49.226;8.108;2024-01-10T13:52:26;31.67;;;15.07;;
4519;SDS011;2272;49.226;8.108;2024-01-10T13:54:53;23.50;;;14.20;;
4519;SDS011;2272;49.226;8.108;2024-01-10T13:57:21;21.93;;;13.60;;
4519;SDS011;2272;49.226;8.108;2024-01-10T13:59:47;27.50;;;15.50;;
4519;SDS011;2272;49.226;8.108;2024-01-10T14:02:14;25.50;;;13.70;;
4519;SDS011;2272;49.226;8.108;2024-01-10T14:04:44;31.70;;;14.43;;
4519;SDS011;2272;49.226;8.108;2024-01-10T14:07:11;27.60;;;14.27;;
4519;SDS011;2272;49.226;8.108;2024-01-10T14:09:38;29.30;;;14.77;;
4519;SDS011;2272;49.226;8.108;2024-01-10T14:12:05;24.37;;;13.30;;
4519;SDS011;2272;49.226;8.108;2024-01-10T14:14:32;24.20;;;14.47;;
4519;SDS011;2272;49.226;8.108;2024-01-10T14:16:58;30.03;;;15.37;;
4519;SDS011;2272;49.226;8.108;2024-01-10T14:19:25;25.53;;;13.83;;
4519;SDS011;2272;49.226;8.108;2024-01-10T14:21:53;29.67;;;14.87;;
4519;SDS011;2272;49.226;8.108;2024-01-10T14:24:20;39.20;;;17.40;;
4519;SDS011;2272;49.226;8.108;2024-01-10T14:26:46;32.63;;;17.37;;
4519;SDS011;2272;49.226;8.108;2024-01-10T14:29:13;57.43;;;22.13;;
4519;SDS011;2272;49.226;8.108;2024-01-10T14:31:42;28.53;;;15.00;;
4519;SDS011;2272;49.226;8.108;2024-01-10T14:34:11;29.30;;;13.73;;
4519;SDS011;2272;49.226;8.108;2024-01-10T14:36:39;43.23;;;13.70;;
4519;SDS011;2272;49.226;8.108;2024-01-10T14:39:07;25.70;;;14.13;;
4519;SDS011;2272;49.226;8.108;2024-01-10T14:41:33;46.67;;;14.77;;
4519;SDS011;2272;49.226;8.108;2024-01-10T14:44:00;30.23;;;15.43;;
4519;SDS011;2272;49.226;8.108;2024-01-10T14:46:28;32.00;;;15.53;;
4519;SDS011;2272;49.226;8.108;2024-01-10T14:48:55;31.33;;;15.53;;
4519;SDS011;2272;49.226;8.108;2024-01-10T14:51:21;31.43;;;15.40;;
4519;SDS011;2272;49.226;8.108;2024-01-10T14:53:48;34.20;;;17.57;;
4519;SDS011;2272;49.226;8.108;2024-01-10T14:56:17;35.80;;;19.77;;